createdAt,value
2022-09-24T00:01:51.681Z,95956.00
2022-09-24T00:04:20.168Z,95948.69
2022-09-24T00:06:49.461Z,95953.31
2022-09-24T00:09:22.010Z,95959.50
2022-09-24T00:11:50.482Z,95954.09
2022-09-24T00:14:19.712Z,95949.03
2022-09-24T00:16:47.659Z,95941.19
2022-09-24T00:19:15.861Z,95946.16
2022-09-24T00:21:43.777Z,95938.34
2022-09-24T00:24:36.763Z,95939.47
2022-09-24T00:27:05.757Z,95935.19
2022-09-24T00:29:36.221Z,95932.03
2022-09-24T00:32:05.011Z,95931.53
2022-09-24T00:34:32.773Z,95928.38
2022-09-24T00:37:00.704Z,95925.50
2022-09-24T00:39:28.703Z,95923.59
2022-09-24T00:41:56.509Z,95915.47
2022-09-24T00:44:54.223Z,95916.59
2022-09-24T00:47:29.800Z,95923.59
2022-09-24T00:50:08.056Z,95920.91
2022-09-24T00:52:39.385Z,95918.19
2022-09-24T00:55:08.338Z,95921.53
2022-09-24T00:57:36.177Z,95913.59
2022-09-24T01:00:07.035Z,95925.09
2022-09-24T01:02:37.397Z,95918.13
2022-09-24T01:05:06.018Z,95915.25
2022-09-24T01:07:35.274Z,95911.28
2022-09-24T01:10:03.255Z,95906.53
2022-09-24T01:12:41.460Z,95904.91
2022-09-24T01:15:21.296Z,95904.78
2022-09-24T01:17:56.761Z,95894.75
2022-09-24T01:20:39.749Z,95898.72
2022-09-24T01:23:22.489Z,95894.59
2022-09-24T01:26:07.867Z,95889.19
2022-09-24T01:28:52.322Z,95886.00
2022-09-24T01:31:26.629Z,95887.91
2022-09-24T01:33:57.012Z,95880.91
2022-09-24T01:36:27.434Z,95882.03
2022-09-24T01:38:58.520Z,95879.97
2022-09-24T01:41:26.343Z,95873.78
2022-09-24T01:43:54.860Z,95872.19
2022-09-24T01:46:25.081Z,95870.59
2022-09-24T01:48:53.366Z,95865.66
2022-09-24T01:51:26.055Z,95859.91
2022-09-24T01:53:58.625Z,95871.22
2022-09-24T01:56:29.445Z,95871.69
2022-09-24T01:59:02.739Z,95874.72
2022-09-24T02:01:36.216Z,95866.13
2022-09-24T02:04:09.266Z,95857.56
2022-09-24T02:06:41.346Z,95855.19
2022-09-24T02:09:30.443Z,95857.41
2022-09-24T02:12:01.408Z,95854.88
2022-09-24T02:14:33.535Z,95852.81
2022-09-24T02:17:05.084Z,95849.97
2022-09-24T02:19:37.374Z,95843.28
2022-09-24T02:22:08.012Z,95847.09
2022-09-24T02:24:44.769Z,95837.88
2022-09-24T02:27:12.697Z,95844.41
2022-09-24T02:29:40.854Z,95838.22
2022-09-24T02:32:14.359Z,95833.59
2022-09-24T02:34:47.130Z,95829.78
2022-09-24T02:37:16.829Z,95825.16
2022-09-24T02:39:45.235Z,95825.16
2022-09-24T02:42:15.595Z,95827.56
2022-09-24T02:44:43.344Z,95819.47
2022-09-24T02:47:12.438Z,95821.38
2022-09-24T02:49:40.236Z,95826.78
2022-09-24T02:52:07.978Z,95826.00
2022-09-24T02:54:35.732Z,95818.97
2022-09-24T02:57:03.464Z,95831.41
2022-09-24T02:59:31.197Z,95833.91
2022-09-24T03:01:59.043Z,95832.97
2022-09-24T03:04:29.381Z,95840.91
2022-09-24T03:06:57.229Z,95836.13
2022-09-24T03:09:24.976Z,95839.00
2022-09-24T03:11:52.653Z,95833.94
2022-09-24T03:14:20.378Z,95835.19
2022-09-24T03:16:51.962Z,95836.13
2022-09-24T03:19:19.718Z,95823.09
2022-09-24T03:21:48.756Z,95827.88
2022-09-24T03:24:16.446Z,95833.63
2022-09-24T03:26:44.180Z,95827.38
2022-09-24T03:29:11.986Z,95824.09
2022-09-24T03:31:38.817Z,95831.41
2022-09-24T03:34:06.553Z,95830.09
2022-09-24T03:36:34.358Z,95827.56
2022-09-24T03:39:03.868Z,95831.22
2022-09-24T03:41:31.599Z,95825.81
2022-09-24T03:43:59.421Z,95821.69
2022-09-24T03:46:28.399Z,95818.19
2022-09-24T03:48:56.693Z,95821.69
2022-09-24T03:51:24.479Z,95806.91
2022-09-24T03:53:52.389Z,95812.50
2022-09-24T03:56:21.769Z,95816.44
2022-09-24T03:58:49.497Z,95808.34
2022-09-24T04:01:21.241Z,95808.81
2022-09-24T04:03:49.729Z,95812.31
2022-09-24T04:06:20.910Z,95806.56
2022-09-24T04:08:52.691Z,95808.16
2022-09-24T04:11:21.838Z,95807.38
2022-09-24T04:13:49.543Z,95791.94
2022-09-24T04:16:17.576Z,95806.72
2022-09-24T04:18:47.935Z,95806.72
2022-09-24T04:21:15.894Z,95790.50
2022-09-24T04:23:43.626Z,95785.91
2022-09-24T04:26:12.409Z,95787.97
2022-09-24T04:28:41.475Z,95796.53
2022-09-24T04:31:09.382Z,95796.53
2022-09-24T04:33:37.187Z,95796.19
2022-09-24T04:36:05.135Z,95796.19
2022-09-24T04:38:33.057Z,95793.50
2022-09-24T04:41:06.260Z,95787.28
2022-09-24T04:43:34.194Z,95787.00
2022-09-24T04:46:03.814Z,95788.88
2022-09-24T04:48:32.248Z,95775.84
2022-09-24T04:50:59.927Z,95773.13
2022-09-24T04:53:27.651Z,95769.31
2022-09-24T04:55:55.361Z,95780.91
2022-09-24T04:58:23.120Z,95787.09
2022-09-24T05:00:51.182Z,95780.13
2022-09-24T05:03:21.189Z,95776.28
2022-09-24T05:05:50.028Z,95773.28
2022-09-24T05:08:17.859Z,95780.28
2022-09-24T05:10:45.637Z,95779.47
2022-09-24T05:13:13.377Z,95782.97
2022-09-24T05:15:43.360Z,95781.84
2022-09-24T05:18:16.258Z,95790.41
2022-09-24T05:20:45.341Z,95787.41
2022-09-24T05:23:13.077Z,95789.63
2022-09-24T05:25:54.700Z,95796.66
2022-09-24T05:28:22.481Z,95782.00
2022-09-24T05:30:51.365Z,95783.72
2022-09-24T05:33:19.050Z,95779.56
2022-09-24T05:35:54.505Z,95777.34
2022-09-24T05:38:22.857Z,95782.09
2022-09-24T05:40:50.739Z,95788.44
2022-09-24T05:43:20.247Z,95792.06
2022-09-24T05:45:48.993Z,95797.63
2022-09-24T05:48:17.649Z,95794.59
2022-09-24T05:50:45.369Z,95782.34
2022-09-24T05:53:14.456Z,95787.06
2022-09-24T05:55:44.331Z,95792.63
2022-09-24T05:58:13.267Z,95792.31
2022-09-24T06:00:41.273Z,95790.84
2022-09-24T06:03:13.609Z,95788.94
2022-09-24T06:05:46.281Z,95801.03
2022-09-24T06:08:16.440Z,95798.78
2022-09-24T06:10:45.436Z,95806.91
2022-09-24T06:13:14.175Z,95800.34
2022-09-24T06:15:42.380Z,95803.56
2022-09-24T06:18:12.152Z,95802.09
2022-09-24T06:20:40.124Z,95794.13
2022-09-24T06:23:08.184Z,95793.47
2022-09-24T06:25:37.414Z,95795.84
2022-09-24T06:28:05.869Z,95791.69
2022-09-24T06:30:38.281Z,95795.31
2022-09-24T06:33:08.457Z,95789.56
2022-09-24T06:35:36.940Z,95794.66
2022-09-24T06:38:05.510Z,95794.44
2022-09-24T06:40:37.156Z,95799.56
2022-09-24T06:43:07.517Z,95798.56
2022-09-24T06:45:36.142Z,95800.94
2022-09-24T06:48:06.677Z,95808.53
2022-09-24T06:50:35.907Z,95810.56
2022-09-24T06:53:06.658Z,95812.09
2022-09-24T06:55:35.081Z,95815.06
2022-09-24T06:58:04.378Z,95817.00
2022-09-24T07:00:34.067Z,95817.88
2022-09-24T07:03:01.935Z,95810.38
2022-09-24T07:05:29.830Z,95828.44
2022-09-24T07:07:57.641Z,95822.53
2022-09-24T07:10:26.515Z,95828.75
2022-09-24T07:12:54.491Z,95826.50
2022-09-24T07:15:22.346Z,95819.63
2022-09-24T07:17:56.125Z,95830.59
2022-09-24T07:20:24.341Z,95830.38
2022-09-24T07:22:52.742Z,95825.41
2022-09-24T07:25:23.621Z,95833.69
2022-09-24T07:27:51.639Z,95836.19
2022-09-24T07:30:19.601Z,95831.34
2022-09-24T07:32:48.307Z,95847.06
2022-09-24T07:35:18.978Z,95845.06
2022-09-24T07:37:46.977Z,95844.63
2022-09-24T07:40:14.956Z,95841.59
2022-09-24T07:42:48.421Z,95848.72
2022-09-24T07:45:17.230Z,95851.59
2022-09-24T07:47:45.184Z,95849.22
2022-09-24T07:50:13.744Z,95848.75
2022-09-24T07:52:43.088Z,95853.09
2022-09-24T07:55:10.962Z,95855.69
2022-09-24T07:57:39.371Z,95852.38
2022-09-24T08:00:08.269Z,95858.13
2022-09-24T08:02:39.385Z,95861.50
2022-09-24T08:05:08.135Z,95852.06
2022-09-24T08:07:35.895Z,95855.09
2022-09-24T08:10:05.696Z,95860.59
2022-09-24T08:12:33.445Z,95863.47
2022-09-24T08:15:01.219Z,95864.00
2022-09-24T08:17:29.037Z,95864.72
2022-09-24T08:19:57.044Z,95866.00
2022-09-24T08:22:25.057Z,95863.91
2022-09-24T08:24:53.335Z,95864.00
2022-09-24T08:27:23.794Z,95881.75
2022-09-24T08:29:51.902Z,95878.41
2022-09-24T08:32:19.756Z,95873.31
2022-09-24T08:34:47.645Z,95881.59
2022-09-24T08:37:15.463Z,95878.41
2022-09-24T08:39:43.405Z,95879.03
2022-09-24T08:42:16.685Z,95878.41
2022-09-24T08:45:04.798Z,95883.22
2022-09-24T08:47:39.390Z,95879.97
2022-09-24T08:50:13.505Z,95881.03
2022-09-24T08:52:51.813Z,95887.41
2022-09-24T08:55:23.541Z,95883.34
2022-09-24T08:57:58.756Z,95886.09
2022-09-24T09:00:29.620Z,95886.59
2022-09-24T09:03:05.244Z,95883.53
2022-09-24T09:05:49.969Z,95892.41
2022-09-24T09:08:50.089Z,95888.00
2022-09-24T09:11:16.341Z,95899.19
2022-09-24T09:13:49.707Z,95895.34
2022-09-24T09:16:25.975Z,95900.78
2022-09-24T09:18:59.520Z,95900.34
2022-09-24T09:21:30.636Z,95898.53
2022-09-24T09:24:00.861Z,95900.63
2022-09-24T09:26:28.594Z,95898.16
2022-09-24T09:29:00.999Z,95898.63
2022-09-24T09:31:40.634Z,95897.47
2022-09-24T09:34:31.195Z,95891.16
2022-09-24T09:37:14.020Z,95894.50
2022-09-24T09:39:50.799Z,95898.13
2022-09-24T09:42:29.654Z,95905.94
2022-09-24T09:44:58.095Z,95904.91
2022-09-24T09:47:40.146Z,95902.81
2022-09-24T09:50:16.449Z,95904.06
2022-09-24T09:52:44.441Z,95892.03
2022-09-24T09:55:22.950Z,95897.59
2022-09-24T09:57:52.327Z,95899.19
2022-09-24T10:00:33.935Z,95898.94
2022-09-24T10:03:04.173Z,95896.06
2022-09-24T10:05:32.472Z,95905.50
2022-09-24T10:08:00.255Z,95890.75
2022-09-24T10:10:29.357Z,95895.06
2022-09-24T10:13:09.118Z,95902.97
2022-09-24T10:15:49.336Z,95886.63
2022-09-24T10:18:26.808Z,95894.91
2022-09-24T10:20:54.571Z,95887.28
2022-09-24T10:23:26.556Z,95899.56
2022-09-24T10:26:00.441Z,95888.50
2022-09-24T10:28:47.116Z,95900.38
2022-09-24T10:31:19.074Z,95914.38
2022-09-24T10:33:51.229Z,95895.31
2022-09-24T10:36:22.117Z,95901.44
2022-09-24T10:38:50.161Z,95903.81
2022-09-24T10:41:27.110Z,95898.81
2022-09-24T10:43:56.462Z,95891.53
2022-09-24T10:47:01.778Z,95897.50
2022-09-24T10:49:45.132Z,95892.75
2022-09-24T10:52:26.421Z,95896.25
2022-09-24T10:55:07.105Z,95902.06
2022-09-24T10:57:43.421Z,95899.84
2022-09-24T11:00:17.152Z,95899.22
2022-09-24T11:03:12.845Z,95899.06
2022-09-24T11:05:46.449Z,95902.75
2022-09-24T11:08:26.207Z,95903.63
2022-09-24T11:11:16.835Z,95913.81
2022-09-24T11:13:56.030Z,95913.09
2022-09-24T11:16:41.280Z,95905.63
2022-09-24T11:19:21.288Z,95909.59
2022-09-24T11:22:10.947Z,95912.69
2022-09-24T11:24:52.253Z,95909.31
2022-09-24T11:27:46.338Z,95910.28
2022-09-24T11:30:17.203Z,95910.72
2022-09-24T11:32:59.231Z,95916.63
2022-09-24T11:35:53.972Z,95910.56
2022-09-24T11:38:34.273Z,95906.84
2022-09-24T11:41:17.359Z,95911.34
2022-09-24T11:44:13.511Z,95905.72
2022-09-24T11:46:53.395Z,95896.94
2022-09-24T11:49:37.351Z,95898.50
2022-09-24T11:52:11.305Z,95893.59
2022-09-24T11:54:47.721Z,95891.16
2022-09-24T11:57:21.656Z,95898.00
2022-09-24T11:59:57.284Z,95886.41
2022-09-24T12:02:30.254Z,95890.44
2022-09-24T12:05:04.074Z,95883.91
2022-09-24T12:07:37.816Z,95887.59
2022-09-24T12:10:24.915Z,95886.25
2022-09-24T12:12:55.176Z,95884.88
2022-09-24T12:15:25.289Z,95888.75
2022-09-24T12:17:57.990Z,95882.13
2022-09-24T12:20:28.641Z,95880.03
2022-09-24T12:23:00.941Z,95883.63
2022-09-24T12:25:33.670Z,95889.88
2022-09-24T12:28:02.624Z,95882.06
2022-09-24T12:30:56.390Z,95883.50
2022-09-24T12:33:31.333Z,95885.44
2022-09-24T12:36:06.917Z,95876.50
2022-09-24T12:38:39.389Z,95874.22
2022-09-24T12:41:27.686Z,95879.81
2022-09-24T12:44:00.955Z,95882.84
2022-09-24T12:46:32.450Z,95880.47
2022-09-24T12:49:00.750Z,95879.97
2022-09-24T12:51:36.677Z,95879.81
2022-09-24T12:54:10.244Z,95871.22
2022-09-24T12:56:40.991Z,95869.19
2022-09-24T12:59:25.366Z,95868.03
2022-09-24T13:01:53.159Z,95877.19
2022-09-24T13:04:28.682Z,95885.03
2022-09-24T13:06:56.621Z,95878.00
2022-09-24T13:09:34.233Z,95867.72
2022-09-24T13:12:07.023Z,95865.66
2022-09-24T13:14:35.783Z,95874.06
2022-09-24T13:17:07.605Z,95865.59
2022-09-24T13:19:40.773Z,95860.44
2022-09-24T13:22:21.820Z,95860.38
2022-09-24T13:24:52.607Z,95856.53
2022-09-24T13:27:37.699Z,95868.56
2022-09-24T13:30:16.122Z,95876.84
2022-09-24T13:32:50.189Z,95870.81
2022-09-24T13:35:23.644Z,95865.41
2022-09-24T13:37:57.305Z,95874.41
2022-09-24T13:40:29.229Z,95877.94
2022-09-24T13:43:05.328Z,95868.41
2022-09-24T13:45:34.984Z,95872.88
2022-09-24T13:48:51.546Z,95873.06
2022-09-24T13:51:28.887Z,95874.63
2022-09-24T15:04:40.061Z,95823.66
2022-09-24T15:07:17.693Z,95831.13
2022-09-24T15:09:50.357Z,95825.34
2022-09-24T15:12:21.554Z,95821.03
2022-09-24T15:14:57.601Z,95824.97
2022-09-24T15:17:30.359Z,95817.22
2022-09-24T15:19:58.067Z,95812.59
2022-09-24T15:22:28.074Z,95817.22
2022-09-24T15:25:01.156Z,95816.09
2022-09-24T15:27:31.490Z,95816.88
2022-09-24T15:30:01.196Z,95814.94
2022-09-24T15:32:30.880Z,95830.78
2022-09-24T15:34:59.278Z,95829.94
2022-09-24T15:37:30.633Z,95826.31
2022-09-24T15:40:01.272Z,95824.66
2022-09-24T15:42:29.201Z,95822.28
2022-09-24T15:45:01.630Z,95817.16
2022-09-24T15:47:29.683Z,95810.84
2022-09-24T15:49:57.458Z,95819.31
2022-09-24T15:52:29.599Z,95818.44
2022-09-24T15:54:59.828Z,95819.53
2022-09-24T15:57:28.202Z,95811.59
2022-09-24T15:59:56.298Z,95809.94
2022-09-24T16:02:27.950Z,95819.19
2022-09-24T16:05:00.127Z,95807.78
2022-09-24T16:07:32.034Z,95806.09
2022-09-24T16:09:59.849Z,95814.56
2022-09-24T16:12:28.193Z,95813.66
2022-09-24T16:14:59.141Z,95810.88
2022-09-24T16:17:27.070Z,95810.00
2022-09-24T16:19:55.242Z,95802.91
2022-09-24T16:22:23.360Z,95807.47
2022-09-24T16:24:54.078Z,95805.81
2022-09-24T16:27:22.322Z,95814.22
2022-09-24T16:29:50.247Z,95820.38
2022-09-24T16:32:18.062Z,95814.03
2022-09-24T16:34:46.465Z,95818.59
2022-09-24T16:37:16.601Z,95812.28
2022-09-24T16:39:44.468Z,95811.41
2022-09-24T16:42:13.582Z,95809.38
2022-09-24T16:44:41.506Z,95813.59
2022-09-24T16:47:09.626Z,95810.41
2022-09-24T16:49:37.424Z,95806.13
2022-09-24T16:52:06.180Z,95809.94
2022-09-24T16:54:34.485Z,95813.41
2022-09-24T16:57:03.413Z,95814.88
2022-09-24T16:59:32.999Z,95813.28
2022-09-24T17:02:00.931Z,95813.66
2022-09-24T17:04:29.818Z,95819.41
2022-09-24T17:06:58.314Z,95815.13
2022-09-24T17:09:43.524Z,95817.41
2022-09-24T17:12:11.614Z,95818.91
2022-09-24T17:14:40.713Z,95827.41
2022-09-24T17:17:08.530Z,95816.63
2022-09-24T17:19:36.273Z,95814.84
2022-09-24T17:22:03.982Z,95805.03
2022-09-24T17:24:32.489Z,95807.28
2022-09-24T17:27:00.740Z,95806.41
2022-09-24T17:29:31.631Z,95804.81
2022-09-24T17:32:01.197Z,95803.25
2022-09-24T17:34:29.070Z,95810.25
2022-09-24T17:36:57.406Z,95814.38
2022-09-24T17:39:25.273Z,95819.56
2022-09-24T17:41:53.020Z,95820.03
2022-09-24T17:44:20.753Z,95823.41
2022-09-24T17:46:48.576Z,95823.66
2022-09-24T17:49:17.758Z,95814.19
2022-09-24T17:51:49.272Z,95822.34
2022-09-24T17:54:19.036Z,95809.09
2022-09-24T17:56:46.853Z,95819.16
2022-09-24T17:59:16.166Z,95819.16
2022-09-24T18:01:45.465Z,95813.28
2022-09-24T18:04:15.099Z,95820.19
2022-09-24T18:06:46.059Z,95831.44
2022-09-24T18:09:15.684Z,95833.69
2022-09-24T18:11:45.241Z,95833.63
2022-09-24T18:14:16.748Z,95831.94
2022-09-24T18:16:45.318Z,95836.47
2022-09-24T18:19:15.646Z,95844.16
2022-09-24T18:21:45.249Z,95837.81
2022-09-24T18:24:13.013Z,95829.59
2022-09-24T18:26:41.452Z,95841.56
2022-09-24T18:29:13.749Z,95833.78
2022-09-24T18:31:42.150Z,95839.56
2022-09-24T18:34:13.084Z,95838.78
2022-09-24T18:36:42.233Z,95829.38
2022-09-24T18:39:13.599Z,95843.63
2022-09-24T18:41:43.328Z,95842.06
2022-09-24T18:44:11.845Z,95843.19
2022-09-24T18:46:40.090Z,95845.47
2022-09-24T18:49:08.043Z,95857.38
2022-09-24T18:51:37.719Z,95851.81
2022-09-24T18:54:07.502Z,95852.59
2022-09-24T18:56:37.292Z,95855.31
2022-09-24T18:59:09.714Z,95847.53
2022-09-24T19:01:38.010Z,95854.00
2022-09-24T19:04:07.044Z,95850.81
2022-09-24T19:06:36.072Z,95856.94
2022-09-24T19:09:05.707Z,95855.34
2022-09-24T19:11:34.415Z,95857.25
2022-09-24T19:14:06.396Z,95864.72
2022-09-24T19:16:34.995Z,95856.13
2022-09-24T19:19:03.107Z,95860.44
2022-09-24T19:21:31.502Z,95852.97
2022-09-24T19:24:00.602Z,95853.19
2022-09-24T19:26:29.913Z,95855.13
2022-09-24T19:28:58.882Z,95853.56
2022-09-24T19:31:30.649Z,95847.66
2022-09-24T19:34:00.070Z,95849.56
2022-09-24T19:36:27.791Z,95851.63
2022-09-24T19:38:56.082Z,95847.31
2022-09-24T19:41:26.215Z,95858.03
2022-09-24T19:43:55.068Z,95853.97
2022-09-24T19:46:24.297Z,95853.06
2022-09-24T19:48:54.884Z,95845.94
2022-09-24T19:51:24.672Z,95846.63
2022-09-24T19:53:54.267Z,95848.06
2022-09-24T19:56:25.302Z,95848.78
2022-09-24T19:58:54.091Z,95848.66
2022-09-24T20:01:22.926Z,95850.09
2022-09-24T20:03:51.748Z,95855.44
2022-09-24T20:06:23.591Z,95847.97
2022-09-24T20:08:51.320Z,95839.72
2022-09-24T20:11:21.169Z,95839.16
2022-09-24T20:13:49.300Z,95836.78
2022-09-24T20:16:19.991Z,95836.31
2022-09-24T20:18:48.414Z,95845.13
2022-09-24T20:21:17.142Z,95844.66
2022-09-24T20:23:47.155Z,95846.47
2022-09-24T20:26:33.385Z,95844.75
2022-09-24T20:29:01.935Z,95846.47
2022-09-24T20:31:30.454Z,95836.28
2022-09-24T20:33:58.457Z,95846.66
2022-09-24T20:36:26.205Z,95849.94
2022-09-24T20:38:55.556Z,95848.69
2022-09-24T20:41:25.254Z,95839.75
2022-09-24T20:43:55.418Z,95847.88
2022-09-24T20:46:24.713Z,95836.72
2022-09-24T20:48:52.814Z,95842.13
2022-09-24T20:51:22.216Z,95845.97
2022-09-24T20:53:50.444Z,95845.72
2022-09-24T20:56:19.596Z,95842.78
2022-09-24T20:58:50.061Z,95849.00
2022-09-24T21:01:25.199Z,95842.00
2022-09-24T21:03:53.162Z,95849.69
2022-09-24T21:06:22.900Z,95841.75
2022-09-24T21:08:51.961Z,95837.53
2022-09-24T21:11:22.961Z,95845.22
2022-09-24T21:13:53.005Z,95855.16
2022-09-24T21:16:23.337Z,95850.84
2022-09-24T21:18:54.420Z,95851.84
2022-09-24T21:21:24.025Z,95854.44
2022-09-24T21:23:53.297Z,95861.91
2022-09-24T21:26:23.782Z,95849.81
2022-09-24T21:28:53.651Z,95846.38
2022-09-24T21:31:24.138Z,95847.84
2022-09-24T21:33:53.556Z,95849.50
2022-09-24T21:36:24.171Z,95849.34
2022-09-24T21:38:55.297Z,95848.41
2022-09-24T21:41:26.006Z,95848.31
2022-09-24T21:43:55.448Z,95851.81
2022-09-24T21:46:23.866Z,95852.09
2022-09-24T21:48:52.219Z,95850.53
2022-09-24T21:51:21.714Z,95848.16
2022-09-24T21:53:49.941Z,95845.78
2022-09-24T21:56:18.686Z,95844.66
2022-09-24T21:58:47.839Z,95851.22
2022-09-24T22:01:17.994Z,95853.56
2022-09-24T22:03:46.626Z,95855.34
2022-09-24T22:06:15.146Z,95845.66
2022-09-24T22:08:45.388Z,95847.88
2022-09-24T22:11:13.716Z,95837.84
2022-09-24T22:13:41.980Z,95835.13
2022-09-24T22:16:12.061Z,95837.06
2022-09-24T22:18:40.642Z,95835.13
2022-09-24T22:21:10.448Z,95830.06
2022-09-24T22:23:38.795Z,95836.94
2022-09-24T22:26:07.957Z,95835.66
2022-09-24T22:28:37.775Z,95832.03
2022-09-24T22:31:07.596Z,95831.91
2022-09-24T22:33:51.042Z,95836.53
2022-09-24T22:36:19.305Z,95836.88
2022-09-24T22:38:48.162Z,95832.88
2022-09-24T22:41:16.271Z,95829.94
2022-09-24T22:43:44.013Z,95838.56
2022-09-24T22:46:14.188Z,95834.31
2022-09-24T22:48:43.829Z,95830.69
2022-09-24T22:51:11.588Z,95831.00
2022-09-24T22:53:40.776Z,95834.84
2022-09-24T22:56:11.286Z,95842.50
2022-09-24T22:58:41.181Z,95825.66
2022-09-24T23:01:10.158Z,95822.16
2022-09-24T23:03:38.699Z,95824.41
2022-09-24T23:06:09.335Z,95821.88
2022-09-24T23:08:40.723Z,95823.81
2022-09-24T23:11:10.197Z,95818.56
2022-09-24T23:13:38.825Z,95810.78
2022-09-24T23:16:12.161Z,95815.06
2022-09-24T23:18:40.638Z,95811.41
2022-09-24T23:21:12.326Z,95814.94
2022-09-24T23:23:40.471Z,95819.88
2022-09-24T23:26:16.228Z,95824.31
2022-09-24T23:28:45.494Z,95821.94
2022-09-24T23:31:14.798Z,95822.91
2022-09-24T23:33:43.456Z,95818.94
2022-09-24T23:36:14.950Z,95830.22
2022-09-24T23:38:43.613Z,95826.41
2022-09-24T23:41:13.108Z,95825.47
2022-09-24T23:43:42.247Z,95815.78
2022-09-24T23:46:11.354Z,95824.34
2022-09-24T23:48:39.309Z,95824.69
2022-09-24T23:51:07.933Z,95828.97
2022-09-24T23:53:37.726Z,95825.19
2022-09-24T23:56:07.298Z,95823.91
2022-09-24T23:58:35.518Z,95825.69
